Time;durP1;ratioP1;P1;durP2;ratioP2;P2;SDS_P1;SDS_P2;PMS_P1;PMS_P2;Temp;Humidity;BMP_temperature;BMP_pressure;BME280_temperature;BME280_humidity;BME280_pressure;Samples;Min_cycle;Max_cycle;Signal;HPM_P1;HPM_P2
2022/07/06 00:01:33;;;;;;;29.48;19.02;;;17.90;99.90;;;;;;5118581;28;20077;-55
2022/07/06 00:03:59;;;;;;;33.15;19.75;;;17.90;99.90;;;;;;5118525;28;20044;-55
2022/07/06 00:06:24;;;;;;;30.75;19.63;;;17.90;99.90;;;;;;5118806;28;20028;-55
2022/07/06 00:08:51;;;;;;;32.83;20.05;;;17.90;99.90;;;;;;5118612;28;20023;-55
2022/07/06 00:11:17;;;;;;;32.25;20.98;;;17.80;99.90;;;;;;5118501;28;20035;-55
2022/07/06 00:13:43;;;;;;;34.30;20.27;;;17.80;99.90;;;;;;5118506;28;20023;-55
2022/07/06 00:16:09;;;;;;;31.17;20.92;;;17.90;99.90;;;;;;5118486;28;20027;-55
2022/07/06 00:18:35;;;;;;;32.20;19.33;;;17.90;99.90;;;;;;5118491;28;20488;-55
2022/07/06 00:21:00;;;;;;;32.90;19.40;;;17.80;99.90;;;;;;5118400;28;20035;-55
2022/07/06 00:23:26;;;;;;;40.10;21.00;;;17.80;99.90;;;;;;5118288;28;20291;-55
2022/07/06 00:25:52;;;;;;;34.10;20.85;;;17.70;99.90;;;;;;5118134;28;20106;-55
2022/07/06 00:28:18;;;;;;;41.97;21.58;;;17.70;99.90;;;;;;5118323;28;20031;-55
2022/07/06 00:30:44;;;;;;;32.50;20.42;;;17.60;99.90;;;;;;5118257;28;20031;-55
2022/07/06 00:33:10;;;;;;;32.70;19.55;;;17.60;99.90;;;;;;5118228;28;20030;-55
2022/07/06 00:35:36;;;;;;;40.92;20.77;;;17.60;99.90;;;;;;5117966;28;20031;-55
2022/07/06 00:38:02;;;;;;;42.58;21.33;;;17.50;99.90;;;;;;5117996;28;20073;-55
2022/07/06 00:40:29;;;;;;;38.20;23.25;;;17.50;99.90;;;;;;5118068;28;20422;-55
2022/07/06 00:42:56;;;;;;;37.55;21.25;;;17.50;99.90;;;;;;5118020;28;20023;-55
2022/07/06 00:45:22;;;;;;;38.88;21.90;;;17.60;99.90;;;;;;5118178;28;20557;-55
2022/07/06 00:47:49;;;;;;;38.50;20.10;;;17.60;99.90;;;;;;5117847;28;20763;-55
2022/07/06 00:50:22;;;;;;;37.85;21.38;;;17.70;99.90;;;;;;5116618;28;20023;-55
2022/07/06 00:52:52;;;;;;;30.85;16.30;;;17.70;99.90;;;;;;5117761;28;20024;-55
2022/07/06 00:55:22;;;;;;;27.87;17.43;;;17.60;99.90;;;;;;5116176;28;20504;-55
2022/07/06 00:57:48;;;;;;;27.75;16.25;;;17.60;99.90;;;;;;5117696;28;20267;-55
2022/07/06 01:00:16;;;;;;;31.05;14.13;;;17.60;99.90;;;;;;5117763;27;20019;-55
2022/07/06 01:02:43;;;;;;;24.13;14.73;;;17.60;99.90;;;;;;5117643;28;20118;-55
2022/07/06 01:05:10;;;;;;;30.02;15.88;;;17.50;99.90;;;;;;5117630;28;20024;-55
2022/07/06 01:07:38;;;;;;;30.63;16.58;;;17.50;99.90;;;;;;5114839;28;20024;-55
2022/07/06 01:10:06;;;;;;;30.40;17.50;;;17.50;99.90;;;;;;5116036;28;20027;-55
2022/07/06 01:12:34;;;;;;;33.50;17.55;;;17.50;99.90;;;;;;5117464;28;20068;-55
2022/07/06 01:15:00;;;;;;;29.73;17.02;;;17.40;99.90;;;;;;5116170;28;20072;-55
2022/07/06 01:17:26;;;;;;;30.02;18.42;;;17.40;99.90;;;;;;5116064;28;20031;-55
2022/07/06 01:19:52;;;;;;;29.50;17.48;;;17.30;99.90;;;;;;5117487;28;20030;-55
2022/07/06 01:22:18;;;;;;;34.53;17.75;;;17.30;99.90;;;;;;5115866;28;20023;-55
2022/07/06 01:24:44;;;;;;;35.00;16.48;;;17.30;99.90;;;;;;5116988;28;20038;-55
2022/07/06 01:27:10;;;;;;;26.23;14.80;;;17.30;99.90;;;;;;5117275;28;20028;-55
2022/07/06 01:29:36;;;;;;;26.08;14.38;;;17.30;99.90;;;;;;5117087;28;20034;-55
2022/07/06 01:32:03;;;;;;;26.38;14.55;;;17.40;99.90;;;;;;5150104;27;20039;-55
2022/07/06 01:34:29;;;;;;;21.75;13.10;;;17.40;99.90;;;;;;5115630;28;20472;-55
2022/07/06 01:36:56;;;;;;;25.88;13.40;;;17.40;99.90;;;;;;5115548;28;20072;-55
2022/07/06 01:39:22;;;;;;;25.77;13.25;;;17.50;99.90;;;;;;5115604;28;20027;-55
2022/07/06 01:41:48;;;;;;;26.80;14.80;;;17.40;99.90;;;;;;5150099;27;20035;-55
2022/07/06 01:44:14;;;;;;;26.70;14.57;;;17.40;99.90;;;;;;5116829;28;20381;-55
2022/07/06 01:46:40;;;;;;;30.52;16.42;;;17.50;99.90;;;;;;5116731;28;20042;-55
2022/07/06 01:49:08;;;;;;;26.95;14.50;;;17.50;99.90;;;;;;5149936;27;20038;-55
2022/07/06 01:51:34;;;;;;;30.42;17.70;;;17.50;99.90;;;;;;5115167;28;20043;-55
2022/07/06 01:54:00;;;;;;;36.15;18.65;;;17.60;99.90;;;;;;5115493;28;20499;-55
2022/07/06 01:56:27;;;;;;;43.47;19.50;;;17.60;99.90;;;;;;5116579;28;20080;-55
2022/07/06 01:58:57;;;;;;;;;;;17.70;99.90;;;;;;5115666;28;20023;-55
2022/07/06 02:01:23;;;;;;;45.78;23.10;;;17.60;99.90;;;;;;5116597;28;19915;-55
2022/07/06 02:03:49;;;;;;;52.28;25.75;;;17.70;99.90;;;;;;5116330;28;20040;-55
2022/07/06 02:06:16;;;;;;;89.22;37.00;;;17.70;99.90;;;;;;5116149;28;20093;-55
2022/07/06 02:08:45;;;;;;;72.53;32.17;;;17.70;99.90;;;;;;5115037;28;20035;-55
2022/07/06 02:11:11;;;;;;;94.95;36.92;;;17.70;99.90;;;;;;5115093;28;20129;-55
2022/07/06 02:13:39;;;;;;;115.30;39.58;;;17.80;99.90;;;;;;5114905;28;20031;-55
2022/07/06 02:16:08;;;;;;;102.60;40.65;;;17.70;99.90;;;;;;5114994;28;20439;-55
2022/07/06 02:18:34;;;;;;;106.15;41.13;;;17.80;99.90;;;;;;5114371;28;20020;-55
2022/07/06 02:21:00;;;;;;;123.07;39.88;;;17.80;99.90;;;;;;5114690;28;20165;-55
2022/07/06 02:23:26;;;;;;;104.18;39.53;;;17.70;99.90;;;;;;5116035;28;20079;-55
2022/07/06 02:25:53;;;;;;;115.90;40.55;;;17.70;99.90;;;;;;5114764;28;20031;-55
2022/07/06 02:28:20;;;;;;;115.50;40.58;;;17.80;99.90;;;;;;5114655;28;20084;-55
2022/07/06 02:30:46;;;;;;;120.97;40.50;;;17.70;99.90;;;;;;5114722;28;20426;-55
2022/07/06 02:33:13;;;;;;;112.18;38.75;;;17.80;99.90;;;;;;5115894;28;20020;-55
2022/07/06 02:35:42;;;;;;;109.03;38.15;;;17.90;99.90;;;;;;5114598;28;20034;-55
2022/07/06 02:38:09;;;;;;;117.30;40.20;;;17.90;99.90;;;;;;5114509;28;20027;-55
2022/07/06 02:40:36;;;;;;;120.80;42.13;;;18.00;99.90;;;;;;5114383;28;20392;-55
2022/07/06 02:43:03;;;;;;;123.03;42.40;;;18.00;99.90;;;;;;5114369;28;20092;-55
2022/07/06 02:45:29;;;;;;;136.05;44.72;;;18.00;99.90;;;;;;5114417;28;20481;-55
2022/07/06 02:47:57;;;;;;;143.35;46.85;;;17.90;99.90;;;;;;5114180;28;20049;-55
2022/07/06 02:50:24;;;;;;;126.15;43.63;;;17.90;99.90;;;;;;5114433;28;20027;-55
2022/07/06 02:52:51;;;;;;;125.25;44.90;;;17.80;99.90;;;;;;5114160;28;20020;-55
2022/07/06 02:55:17;;;;;;;135.10;46.05;;;17.90;99.90;;;;;;5114152;28;20034;-55
2022/07/06 02:57:43;;;;;;;153.15;48.10;;;18.00;99.90;;;;;;5114293;28;20023;-55
2022/07/06 03:00:12;;;;;;;142.48;48.65;;;18.00;99.90;;;;;;5114092;28;20476;-55
2022/07/06 03:02:39;;;;;;;141.32;52.13;;;18.10;99.90;;;;;;5113754;28;20317;-55
2022/07/06 03:05:06;;;;;;;154.77;50.08;;;18.10;99.90;;;;;;5114080;28;20035;-55
2022/07/06 03:07:32;;;;;;;139.38;47.47;;;18.10;99.90;;;;;;5113964;28;20384;-55
2022/07/06 03:09:59;;;;;;;139.38;47.10;;;18.20;99.90;;;;;;5114127;28;20063;-55
2022/07/06 03:12:27;;;;;;;111.30;40.58;;;18.20;99.90;;;;;;5113890;28;20123;-55
2022/07/06 03:14:53;;;;;;;102.15;36.45;;;18.10;99.90;;;;;;5115464;28;20031;-55
2022/07/06 03:17:19;;;;;;;122.80;38.08;;;18.10;99.90;;;;;;5113649;28;20530;-55
2022/07/06 03:19:46;;;;;;;111.00;33.97;;;18.00;99.90;;;;;;5113885;28;20114;-55
2022/07/06 03:22:12;;;;;;;103.03;34.65;;;18.00;99.90;;;;;;5113887;28;20054;-55
2022/07/06 03:24:38;;;;;;;127.28;40.00;;;17.90;99.90;;;;;;5113685;28;20079;-55
2022/07/06 03:27:05;;;;;;;123.47;40.60;;;17.90;99.90;;;;;;5113796;28;20039;-55
2022/07/06 03:29:32;;;;;;;129.32;42.95;;;17.90;99.90;;;;;;5115088;28;20020;-55
2022/07/06 03:31:59;;;;;;;165.77;48.13;;;17.90;99.90;;;;;;5112994;28;20080;-55
2022/07/06 03:34:25;;;;;;;155.98;47.05;;;18.00;99.90;;;;;;5113642;28;20476;-55
2022/07/06 03:36:51;;;;;;;150.40;45.08;;;18.00;99.90;;;;;;5113539;28;20451;-55
2022/07/06 03:39:17;;;;;;;146.40;45.38;;;17.90;99.90;;;;;;5113498;28;20039;-55
2022/07/06 03:41:43;;;;;;;170.02;46.83;;;17.90;99.90;;;;;;5114978;28;20032;-55
2022/07/06 03:44:09;;;;;;;143.43;44.78;;;17.90;99.90;;;;;;5113633;28;20509;-55
2022/07/06 03:46:36;;;;;;;143.32;45.17;;;17.90;99.90;;;;;;5113391;28;20039;-55
2022/07/06 03:49:02;;;;;;;179.45;42.40;;;17.90;99.90;;;;;;5113474;28;20638;-55
2022/07/06 03:51:29;;;;;;;147.93;47.35;;;17.90;99.90;;;;;;5113508;28;20438;-55
2022/07/06 03:53:54;;;;;;;155.15;45.97;;;17.90;99.90;;;;;;5113459;28;20038;-55
2022/07/06 03:56:29;;;;;;;157.13;44.83;;;17.90;99.90;;;;;;5114744;28;20019;-55
2022/07/06 03:59:07;;;;;;;186.27;46.03;;;17.90;99.90;;;;;;5113261;28;20031;-55
2022/07/06 04:01:36;;;;;;;210.52;46.50;;;17.70;99.90;;;;;;5113422;28;20047;-55
2022/07/06 04:04:03;;;;;;;200.13;47.97;;;17.80;99.90;;;;;;5113294;28;20079;-55
2022/07/06 04:06:30;;;;;;;229.82;50.40;;;17.80;99.90;;;;;;5113525;28;20041;-55
2022/07/06 04:08:57;;;;;;;251.70;54.78;;;17.80;99.90;;;;;;5113641;28;20032;-55
2022/07/06 04:11:23;;;;;;;363.10;64.35;;;17.90;99.90;;;;;;5113095;28;20070;-55
2022/07/06 04:13:49;;;;;;;314.98;60.70;;;17.70;99.90;;;;;;5113199;28;20028;-55
2022/07/06 04:16:15;;;;;;;355.33;67.88;;;17.80;99.90;;;;;;5113253;28;20032;-55
2022/07/06 04:18:41;;;;;;;335.33;65.35;;;17.80;99.90;;;;;;5113306;28;20110;-55
2022/07/06 04:21:07;;;;;;;367.30;65.97;;;17.90;99.90;;;;;;5113134;28;20637;-55
2022/07/06 04:23:36;;;;;;;351.67;68.88;;;17.80;99.90;;;;;;5113062;28;20490;-55
2022/07/06 04:26:04;;;;;;;335.38;67.03;;;17.90;99.90;;;;;;5113036;28;20104;-55
2022/07/06 04:28:32;;;;;;;317.20;64.40;;;18.00;99.90;;;;;;5113256;28;20432;-55
2022/07/06 04:30:58;;;;;;;311.38;66.00;;;18.10;99.90;;;;;;5114566;28;20028;-55
2022/07/06 04:33:25;;;;;;;315.45;69.15;;;18.10;99.90;;;;;;5113220;28;20032;-55
2022/07/06 04:35:51;;;;;;;288.23;68.20;;;18.10;99.90;;;;;;5112894;28;20435;-55
2022/07/06 04:38:19;;;;;;;296.10;68.22;;;18.20;99.90;;;;;;5112953;28;20034;-55
2022/07/06 04:40:47;;;;;;;264.75;63.05;;;18.30;99.90;;;;;;5113054;28;20027;-55
2022/07/06 04:43:15;;;;;;;239.85;58.53;;;18.20;99.90;;;;;;5115564;28;20023;-55
2022/07/06 04:45:41;;;;;;;233.57;55.30;;;18.40;99.90;;;;;;5116792;28;20023;-55
2022/07/06 04:48:08;;;;;;;257.38;60.00;;;18.40;99.90;;;;;;5116521;28;20110;-55
2022/07/06 04:50:35;;;;;;;278.40;61.88;;;18.40;99.90;;;;;;5116540;28;20301;-55
2022/07/06 04:53:03;;;;;;;254.20;62.15;;;18.30;99.90;;;;;;5116433;28;20028;-55
2022/07/06 04:55:31;;;;;;;233.80;59.42;;;18.30;99.90;;;;;;5099682;28;20042;-55
2022/07/06 04:57:57;;;;;;;223.82;56.97;;;18.30;99.90;;;;;;5116522;28;20019;-55
2022/07/06 05:00:24;;;;;;;198.95;56.25;;;18.50;99.90;;;;;;5116334;28;20020;-55
2022/07/06 05:02:50;;;;;;;181.20;52.90;;;18.70;99.90;;;;;;5116165;28;20062;-55
2022/07/06 05:05:18;;;;;;;201.05;56.10;;;18.80;99.90;;;;;;5116268;28;20063;-55
2022/07/06 05:07:45;;;;;;;179.85;52.00;;;18.80;99.90;;;;;;5116231;28;20107;-55
2022/07/06 05:10:11;;;;;;;160.45;51.30;;;18.90;99.90;;;;;;5116184;28;20031;-55
2022/07/06 05:12:40;;;;;;;149.10;47.50;;;19.00;99.90;;;;;;5115949;28;20405;-55
2022/07/06 05:15:08;;;;;;;140.02;45.25;;;19.10;99.90;;;;;;5116233;28;20422;-55
2022/07/06 05:17:34;;;;;;;130.52;45.20;;;19.10;99.90;;;;;;5117848;28;20080;-55
2022/07/06 05:20:01;;;;;;;125.88;43.58;;;19.10;99.90;;;;;;5116180;28;20024;-55
2022/07/06 05:22:31;;;;;;;122.70;42.33;;;19.10;99.90;;;;;;5115852;28;20587;-55
2022/07/06 05:24:57;;;;;;;192.18;58.75;;;19.00;99.90;;;;;;5115800;28;20071;-55
2022/07/06 05:27:24;;;;;;;223.95;69.65;;;19.20;99.90;;;;;;5115864;28;20042;-55
2022/07/06 05:29:50;;;;;;;224.98;69.47;;;19.20;99.90;;;;;;5113270;28;20032;-55
2022/07/06 05:32:16;;;;;;;215.75;67.00;;;19.30;99.90;;;;;;5114177;28;20122;-55
2022/07/06 05:34:42;;;;;;;194.02;64.82;;;19.30;99.90;;;;;;5112844;28;20054;-55
2022/07/06 05:37:10;;;;;;;163.05;56.80;;;19.50;99.90;;;;;;5114932;28;20047;-55
2022/07/06 05:39:37;;;;;;;154.60;53.80;;;19.50;99.90;;;;;;5115342;28;20050;-55
2022/07/06 05:42:03;;;;;;;149.02;52.42;;;19.80;99.90;;;;;;5116388;28;20042;-55
2022/07/06 05:44:30;;;;;;;95.88;40.33;;;19.90;99.90;;;;;;5111972;28;20027;-55
2022/07/06 05:50:11;;;;;;;92.93;37.47;;;19.90;99.90;;;;;;5116445;28;20123;-55
2022/07/06 05:52:29;;;;;;;68.13;30.00;;;20.10;99.90;;;;;;5115028;28;20477;-55
2022/07/06 05:54:55;;;;;;;44.17;21.98;;;20.00;99.90;;;;;;5114563;28;20034;-55
2022/07/06 05:57:21;;;;;;;42.33;23.20;;;20.10;99.90;;;;;;5115031;28;20031;-55
2022/07/06 05:59:47;;;;;;;40.25;21.10;;;20.30;99.90;;;;;;5114886;28;20032;-55
2022/07/06 06:02:13;;;;;;;45.28;22.95;;;20.20;99.90;;;;;;5114997;28;20114;-55
2022/07/06 06:04:39;;;;;;;44.53;22.38;;;20.50;99.90;;;;;;5114470;28;20096;-55
2022/07/06 06:07:05;;;;;;;26.05;17.08;;;20.60;99.90;;;;;;5103057;27;20063;-55
2022/07/06 06:09:31;;;;;;;19.60;11.65;;;20.60;99.90;;;;;;5100687;28;20114;-55
2022/07/06 06:11:57;;;;;;;22.27;12.48;;;20.70;99.90;;;;;;5109803;27;20119;-55
2022/07/06 06:14:24;;;;;;;11.38;9.48;;;20.80;99.90;;;;;;5102270;28;20027;-55
2022/07/06 06:16:51;;;;;;;14.15;9.30;;;20.80;99.90;;;;;;5108523;28;20449;-55
2022/07/06 06:19:17;;;;;;;17.00;10.35;;;20.70;99.90;;;;;;5115254;28;20053;-55
2022/07/06 06:21:43;;;;;;;16.98;11.57;;;20.70;99.90;;;;;;5116304;28;20032;-55
2022/07/06 06:24:09;;;;;;;22.17;12.90;;;20.90;99.90;;;;;;5116430;28;20027;-55
2022/07/06 06:26:35;;;;;;;34.25;14.52;;;20.90;99.90;;;;;;5116438;28;20031;-55
2022/07/06 06:29:01;;;;;;;25.50;14.98;;;21.00;99.90;;;;;;5115083;28;20028;-55
2022/07/06 06:31:26;;;;;;;34.80;17.42;;;21.00;99.90;;;;;;5116453;28;20414;-55
2022/07/06 06:33:53;;;;;;;32.10;16.38;;;21.20;99.90;;;;;;5105099;28;20066;-55
2022/07/06 06:36:19;;;;;;;26.27;15.10;;;21.30;99.90;;;;;;5101774;28;20035;-55
2022/07/06 06:38:45;;;;;;;37.78;19.17;;;21.40;99.90;;;;;;5104488;28;20047;-55
2022/07/06 06:41:11;;;;;;;46.65;22.85;;;21.50;99.90;;;;;;5098854;28;20023;-55
2022/07/06 06:43:37;;;;;;;46.22;24.75;;;21.60;99.90;;;;;;5106634;28;20084;-55
2022/07/06 06:46:13;;;;;;;59.30;26.30;;;21.80;99.90;;;;;;5107727;28;20476;-55
2022/07/06 06:48:39;;;;;;;57.58;28.05;;;21.80;99.90;;;;;;5102371;28;20055;-55
2022/07/06 06:51:05;;;;;;;58.13;26.63;;;21.90;99.90;;;;;;5101779;28;20060;-55
2022/07/06 06:53:30;;;;;;;57.10;26.73;;;22.00;99.90;;;;;;5105465;28;20024;-55
2022/07/06 06:55:56;;;;;;;85.53;34.92;;;22.10;99.90;;;;;;5106928;28;20031;-55
2022/07/06 06:58:22;;;;;;;134.43;48.03;;;22.20;99.90;;;;;;5103883;28;20432;-55
2022/07/06 07:00:48;;;;;;;151.52;52.92;;;22.40;99.90;;;;;;5094874;28;20024;-55
2022/07/06 07:03:14;;;;;;;175.05;56.20;;;22.60;99.90;;;;;;5094649;28;20051;-55
2022/07/06 07:05:40;;;;;;;127.00;44.47;;;22.70;99.90;;;;;;5094768;28;20036;-55
2022/07/06 07:08:06;;;;;;;142.82;46.92;;;22.90;99.90;;;;;;5094720;28;20032;-55
2022/07/06 07:10:32;;;;;;;122.75;43.03;;;23.10;99.90;;;;;;5094701;28;20020;-55
2022/07/06 07:12:58;;;;;;;126.15;45.60;;;23.30;99.90;;;;;;5094706;28;20020;-55
2022/07/06 07:15:24;;;;;;;153.35;52.03;;;23.50;99.90;;;;;;5094741;28;20046;-55
2022/07/06 07:17:50;;;;;;;141.95;49.97;;;23.80;99.90;;;;;;5094472;28;20388;-55
2022/07/06 07:20:16;;;;;;;97.97;38.08;;;24.00;99.90;;;;;;5094088;28;20119;-55
2022/07/06 07:22:42;;;;;;;82.93;34.33;;;24.20;99.90;;;;;;5094262;28;20032;-55
2022/07/06 07:25:08;;;;;;;81.10;33.47;;;24.40;99.90;;;;;;5094212;28;20028;-55
2022/07/06 07:27:34;;;;;;;99.38;36.85;;;24.70;99.60;;;;;;5094508;28;20024;-55
2022/07/06 07:30:00;;;;;;;75.40;28.88;;;24.90;99.90;;;;;;5094486;28;20054;-55
2022/07/06 07:32:26;;;;;;;19.42;10.80;;;25.10;99.70;;;;;;5094618;28;20047;-55
2022/07/06 07:34:52;;;;;;;16.27;9.60;;;25.10;93.70;;;;;;5095389;28;20050;-55
2022/07/06 07:37:18;;;;;;;25.27;10.00;;;25.20;94.30;;;;;;5114801;28;20027;-55
2022/07/06 07:39:44;;;;;;;18.77;10.07;;;25.20;95.00;;;;;;5114844;28;20027;-55
2022/07/06 07:42:09;;;;;;;15.85;9.65;;;25.30;94.20;;;;;;5114913;28;20072;-55
2022/07/06 07:44:35;;;;;;;18.70;9.60;;;25.50;94.40;;;;;;5114395;28;20039;-55
2022/07/06 07:47:01;;;;;;;14.70;9.70;;;25.80;96.70;;;;;;5114694;28;20032;-55
2022/07/06 07:49:27;;;;;;;16.38;9.20;;;25.90;91.40;;;;;;5115097;28;20119;-55
2022/07/06 07:51:53;;;;;;;14.38;8.07;;;26.30;96.40;;;;;;5114631;28;20036;-55
2022/07/06 07:54:19;;;;;;;14.68;8.35;;;26.20;90.50;;;;;;5114528;28;20035;-55
2022/07/06 07:56:45;;;;;;;14.65;7.22;;;26.30;88.30;;;;;;5114837;28;20026;-55
2022/07/06 07:59:11;;;;;;;10.77;5.15;;;26.20;85.90;;;;;;5114383;28;20020;-55
2022/07/06 08:01:38;;;;;;;9.45;5.22;;;26.40;85.20;;;;;;5096484;28;20030;-55
2022/07/06 08:04:04;;;;;;;8.15;4.65;;;26.60;85.70;;;;;;5114485;28;20126;-55
2022/07/06 08:06:30;;;;;;;12.40;6.47;;;26.70;79.80;;;;;;5114406;28;20039;-55
2022/07/06 08:08:56;;;;;;;6.32;5.20;;;26.60;80.90;;;;;;5114482;28;20031;-55
2022/07/06 08:11:22;;;;;;;9.15;6.75;;;26.70;77.90;;;;;;5114458;28;20038;-55
2022/07/06 08:13:48;;;;;;;7.20;4.97;;;26.90;82.00;;;;;;5114534;28;20032;-55
2022/07/06 08:16:14;;;;;;;5.90;4.63;;;27.00;80.00;;;;;;5112636;28;20458;-55
2022/07/06 08:18:40;;;;;;;8.75;4.82;;;27.30;80.70;;;;;;5117910;28;20023;-55
2022/07/06 08:21:07;;;;;;;6.32;4.10;;;27.60;79.20;;;;;;5118404;28;20024;-55
2022/07/06 08:23:34;;;;;;;4.85;3.42;;;27.80;75.40;;;;;;5117832;28;20031;-55
2022/07/06 08:26:02;;;;;;;4.63;3.15;;;27.90;67.00;;;;;;5117149;28;20076;-55
2022/07/06 08:28:28;;;;;;;5.93;3.65;;;27.70;65.80;;;;;;5116949;28;20422;-55
2022/07/06 08:30:54;;;;;;;8.55;4.13;;;27.90;67.90;;;;;;5116370;28;20161;-55
2022/07/06 08:33:20;;;;;;;4.40;3.35;;;28.20;66.50;;;;;;5118028;27;20137;-55
2022/07/06 08:35:46;;;;;;;4.97;3.30;;;28.30;65.00;;;;;;5117702;28;20401;-55
2022/07/06 08:38:13;;;;;;;8.25;3.10;;;28.40;65.60;;;;;;5117642;28;20047;-55
2022/07/06 08:40:40;;;;;;;4.88;2.50;;;28.60;62.20;;;;;;5118067;28;20084;-55
2022/07/06 08:43:06;;;;;;;11.88;2.60;;;28.50;59.90;;;;;;5117912;28;20039;-55
2022/07/06 08:45:35;;;;;;;10.00;3.15;;;28.70;59.30;;;;;;5112449;27;20027;-55
2022/07/06 08:48:09;;;;;;;4.47;2.17;;;28.70;61.50;;;;;;5099883;28;20030;-55
2022/07/06 08:50:41;;;;;;;3.05;2.40;;;28.80;59.20;;;;;;5109569;28;20027;-55
2022/07/06 08:53:07;;;;;;;5.00;2.30;;;29.10;56.80;;;;;;5109776;28;20359;-55
2022/07/06 08:55:34;;;;;;;7.88;2.70;;;28.90;57.90;;;;;;5102850;28;20027;-55
2022/07/06 08:58:00;;;;;;;4.78;2.80;;;28.90;57.10;;;;;;5098800;28;20496;-55
2022/07/06 09:00:26;;;;;;;3.70;2.53;;;28.90;57.00;;;;;;5103858;28;20039;-55
2022/07/06 09:02:56;;;;;;;5.00;3.20;;;29.20;58.50;;;;;;5097746;28;20048;-55
2022/07/06 09:05:24;;;;;;;3.35;2.55;;;29.60;59.20;;;;;;5103819;27;20030;-55
2022/07/06 09:07:51;;;;;;;5.00;2.40;;;29.80;56.60;;;;;;5101140;27;20110;-55
2022/07/06 09:10:21;;;;;;;8.70;2.65;;;30.00;56.50;;;;;;5116354;28;20153;-55
2022/07/06 09:12:48;;;;;;;11.18;2.58;;;30.10;53.80;;;;;;5115576;28;20032;-55
2022/07/06 09:15:14;;;;;;;2.85;2.20;;;30.00;55.30;;;;;;5107920;28;20055;-55
2022/07/06 09:17:42;;;;;;;5.32;2.13;;;30.20;56.00;;;;;;5101199;28;20630;-55
2022/07/06 09:20:10;;;;;;;3.50;1.92;;;30.30;52.10;;;;;;5113272;28;20111;-55
2022/07/06 09:22:37;;;;;;;3.90;2.50;;;30.20;53.60;;;;;;5114661;27;20080;-55
2022/07/06 09:25:07;;;;;;;2.10;1.83;;;30.00;53.00;;;;;;5107177;28;20670;-55
2022/07/06 09:27:38;;;;;;;4.30;2.17;;;30.10;50.40;;;;;;5112749;28;20028;-55
2022/07/06 09:30:06;;;;;;;3.25;2.15;;;30.30;52.00;;;;;;5098024;28;20047;-55
2022/07/06 09:32:37;;;;;;;6.18;2.35;;;30.70;51.10;;;;;;5106108;28;20051;-55
2022/07/06 09:35:04;;;;;;;4.07;2.10;;;30.70;50.20;;;;;;5106800;28;20039;-55
2022/07/06 09:37:30;;;;;;;4.22;2.33;;;30.50;49.40;;;;;;5112579;28;20084;-55
2022/07/06 09:39:56;;;;;;;7.72;2.40;;;30.40;49.90;;;;;;5109429;27;20114;-55
2022/07/06 09:42:26;;;;;;;6.65;2.78;;;30.60;53.20;;;;;;5102968;28;20027;-55
2022/07/06 09:44:52;;;;;;;;;;;30.60;52.30;;;;;;5112547;28;20032;-55
2022/07/06 09:47:19;;;;;;;5.38;2.50;;;30.90;48.90;;;;;;5112478;27;19918;-55
2022/07/06 09:49:48;;;;;;;2.28;1.58;;;31.20;47.90;;;;;;5107897;28;20064;-55
2022/07/06 09:52:14;;;;;;;3.60;1.52;;;31.20;45.60;;;;;;5110604;28;20045;-55
2022/07/06 09:54:41;;;;;;;6.43;2.20;;;31.40;46.90;;;;;;5109346;27;20035;-55
2022/07/06 09:57:08;;;;;;;4.53;2.42;;;31.50;50.00;;;;;;5102069;27;20035;-55
2022/07/06 09:59:38;;;;;;;11.55;3.13;;;31.70;46.60;;;;;;5111906;28;20027;-55
2022/07/06 10:02:05;;;;;;;;;;;31.20;48.20;;;;;;5117494;28;20550;-55
2022/07/06 10:04:31;;;;;;;6.93;2.50;;;31.50;47.70;;;;;;5116664;28;19916;-55
2022/07/06 10:06:59;;;;;;;5.93;1.88;;;31.70;47.20;;;;;;5116782;28;20039;-55
2022/07/06 10:09:27;;;;;;;4.78;1.80;;;31.70;46.40;;;;;;5116686;28;20115;-55
2022/07/06 10:12:01;;;;;;;6.07;2.17;;;31.60;45.90;;;;;;5115407;28;20035;-55
2022/07/06 10:14:31;;;;;;;5.10;2.33;;;31.40;47.80;;;;;;5116811;28;20024;-55
2022/07/06 10:16:59;;;;;;;4.80;2.22;;;31.90;46.50;;;;;;5116587;28;20031;-55
2022/07/06 10:19:27;;;;;;;9.77;2.35;;;32.00;45.20;;;;;;5116644;28;20019;-55
2022/07/06 10:21:53;;;;;;;5.75;2.00;;;31.10;40.10;;;;;;5115562;28;20470;-55
2022/07/06 10:24:20;;;;;;;3.53;2.10;;;31.50;44.80;;;;;;5116327;28;20026;-55
2022/07/06 10:26:47;;;;;;;5.13;1.65;;;31.00;41.50;;;;;;5116249;28;20035;-55
2022/07/06 10:29:13;;;;;;;4.70;1.80;;;31.20;39.30;;;;;;5115683;28;20467;-55
2022/07/06 10:31:48;;;;;;;3.03;1.98;;;31.60;39.90;;;;;;5115549;28;20036;-55
2022/07/06 10:34:15;;;;;;;5.13;2.20;;;32.20;41.10;;;;;;5116139;28;20038;-55
2022/07/06 10:36:43;;;;;;;6.45;2.40;;;32.10;43.90;;;;;;5115280;28;20103;-55
2022/07/06 10:41:55;;;;;;;8.90;2.17;;;32.50;41.90;;;;;;5115949;28;20090;-55
2022/07/06 10:44:25;;;;;;;10.57;3.13;;;32.80;42.20;;;;;;5114855;27;20038;-55
2022/07/06 10:46:56;;;;;;;4.32;1.83;;;31.70;37.80;;;;;;5109082;28;20131;-55
2022/07/06 10:49:24;;;;;;;6.28;2.92;;;31.70;37.30;;;;;;5099345;28;20044;-55
2022/07/06 10:51:50;;;;;;;7.30;2.08;;;31.60;40.80;;;;;;5108012;28;20035;-55
2022/07/06 10:54:18;;;;;;;4.78;1.88;;;31.50;40.80;;;;;;5116120;28;20038;-55
2022/07/06 10:56:51;;;;;;;2.50;1.70;;;31.70;40.70;;;;;;5116081;28;20106;-55
2022/07/06 10:59:18;;;;;;;4.30;1.90;;;32.30;40.80;;;;;;5115292;28;20401;-55
2022/07/06 11:02:15;;;;;;;6.07;2.00;;;32.50;40.50;;;;;;5115433;28;20020;-55
2022/07/06 11:04:43;;;;;;;3.70;2.05;;;32.70;41.30;;;;;;5115365;28;20024;-55
2022/07/06 11:07:17;;;;;;;3.80;1.85;;;33.00;40.80;;;;;;5115047;28;20422;-55
2022/07/06 11:10:09;;;;;;;6.82;3.17;;;33.20;41.60;;;;;;5115220;28;20031;-55
2022/07/06 11:12:36;;;;;;;3.67;1.80;;;33.30;39.60;;;;;;5112697;28;20039;-55
2022/07/06 11:15:06;;;;;;;5.38;2.13;;;33.00;36.10;;;;;;5114871;28;20027;-55
2022/07/06 11:17:32;;;;;;;15.88;3.63;;;32.90;37.60;;;;;;5110571;28;20028;-55
2022/07/06 11:20:09;;;;;;;11.55;1.90;;;31.70;38.80;;;;;;5114786;28;20114;-55
2022/07/06 11:22:37;;;;;;;5.32;1.63;;;32.50;41.60;;;;;;5114672;28;20080;-55
2022/07/06 11:25:05;;;;;;;2.92;1.60;;;32.70;37.70;;;;;;5114460;28;20055;-55
2022/07/06 11:27:33;;;;;;;7.05;2.22;;;32.10;39.50;;;;;;5114624;28;20046;-55
2022/07/06 11:30:00;;;;;;;4.88;1.48;;;32.70;38.20;;;;;;5114871;28;20027;-55
2022/07/06 11:32:26;;;;;;;7.43;2.67;;;32.20;37.40;;;;;;5114659;28;20020;-55
2022/07/06 11:34:52;;;;;;;4.38;1.50;;;32.30;38.80;;;;;;5108344;27;20115;-55
2022/07/06 11:37:20;;;;;;;3.55;1.45;;;32.50;37.50;;;;;;5101817;28;20114;-55
2022/07/06 11:39:47;;;;;;;3.78;1.92;;;32.80;37.20;;;;;;5094091;28;20024;-55
2022/07/06 11:42:16;;;;;;;2.88;1.70;;;32.90;38.50;;;;;;5098444;28;20017;-55
2022/07/06 11:44:43;;;;;;;5.28;1.40;;;33.10;36.50;;;;;;5110354;28;20020;-55
2022/07/06 11:47:11;;;;;;;5.10;1.63;;;33.30;38.40;;;;;;5093904;28;20035;-55
2022/07/06 11:49:39;;;;;;;5.18;2.30;;;33.20;36.90;;;;;;5094091;28;20047;-55
2022/07/06 11:52:10;;;;;;;2.88;2.03;;;32.10;37.20;;;;;;5095121;28;20509;-55
2022/07/06 11:54:36;;;;;;;9.20;2.53;;;32.40;36.80;;;;;;5098176;28;20383;-54
2022/07/06 11:57:03;;;;;;;6.07;1.67;;;31.60;37.80;;;;;;5098168;28;20076;-54
2022/07/06 11:59:35;;;;;;;4.78;1.83;;;32.30;37.80;;;;;;5100665;28;20032;-55
2022/07/06 12:02:06;;;;;;;5.75;3.63;;;32.50;39.50;;;;;;5105850;28;20028;-55
2022/07/06 12:04:35;;;;;;;8.68;3.45;;;32.10;38.70;;;;;;5107643;28;20388;-55
2022/07/06 12:07:08;;;;;;;2.72;1.52;;;32.60;38.90;;;;;;5107262;28;20028;-55
2022/07/06 12:09:36;;;;;;;7.03;2.00;;;32.80;37.30;;;;;;5108665;28;20028;-54
2022/07/06 12:12:03;;;;;;;11.70;2.53;;;32.20;37.80;;;;;;5098318;28;20031;-55
2022/07/06 12:14:31;;;;;;;5.20;2.33;;;32.00;38.00;;;;;;5105276;28;20035;-54
2022/07/06 12:17:06;;;;;;;4.53;1.80;;;32.60;38.70;;;;;;5111326;28;20453;-55
2022/07/06 12:19:33;;;;;;;8.23;2.03;;;32.70;38.20;;;;;;5107556;27;20028;-55
2022/07/06 12:22:01;;;;;;;3.75;1.65;;;33.00;38.50;;;;;;5116587;28;20028;-55
2022/07/06 12:24:31;;;;;;;2.80;1.38;;;33.20;38.40;;;;;;5113383;28;20023;-55
2022/07/06 12:26:58;;;;;;;8.30;2.05;;;33.30;39.00;;;;;;5097755;28;20040;-55
2022/07/06 12:29:28;;;;;;;5.05;1.80;;;33.30;35.50;;;;;;5116224;28;20030;-55
2022/07/06 12:32:00;;;;;;;4.72;1.48;;;33.20;36.20;;;;;;5101066;28;20062;-55
2022/07/06 12:34:35;;;;;;;2.15;1.20;;;33.00;36.40;;;;;;5102123;28;20032;-55
2022/07/06 12:37:13;;;;;;;2.97;1.67;;;32.80;36.10;;;;;;5105447;28;20053;-55
2022/07/06 12:39:44;;;;;;;6.25;1.92;;;32.50;36.50;;;;;;5117596;28;20074;-55